sensor_id;sensor_type;location;lat;lon;timestamp;P1;durP1;ratioP1;P2;durP2;ratioP2
41201;SDS011;26936;50.524;8.684;2023-02-01T00:01:05;3.40;;;1.80;;
41201;SDS011;26936;50.524;8.684;2023-02-01T00:03:31;2.40;;;1.85;;
41201;SDS011;26936;50.524;8.684;2023-02-01T00:05:57;2.42;;;1.70;;
41201;SDS011;26936;50.524;8.684;2023-02-01T00:08:23;4.72;;;2.05;;
41201;SDS011;26936;50.524;8.684;2023-02-01T00:10:48;2.75;;;2.00;;
41201;SDS011;26936;50.524;8.684;2023-02-01T00:13:14;5.30;;;3.00;;
41201;SDS011;26936;50.524;8.684;2023-02-01T00:15:39;5.27;;;2.67;;
41201;SDS011;26936;50.524;8.684;2023-02-01T00:18:04;5.33;;;3.07;;
41201;SDS011;26936;50.524;8.684;2023-02-01T00:20:29;8.45;;;4.63;;
41201;SDS011;26936;50.524;8.684;2023-02-01T00:22:55;9.50;;;3.70;;
41201;SDS011;26936;50.524;8.684;2023-02-01T00:25:20;9.33;;;4.13;;
41201;SDS011;26936;50.524;8.684;2023-02-01T00:27:48;8.67;;;4.40;;
41201;SDS011;26936;50.524;8.684;2023-02-01T00:30:14;12.10;;;4.22;;
41201;SDS011;26936;50.524;8.684;2023-02-01T00:32:40;8.25;;;4.25;;
41201;SDS011;26936;50.524;8.684;2023-02-01T00:35:05;11.45;;;4.60;;
41201;SDS011;26936;50.524;8.684;2023-02-01T00:37:33;8.20;;;4.15;;
41201;SDS011;26936;50.524;8.684;2023-02-01T00:39:58;10.02;;;4.18;;
41201;SDS011;26936;50.524;8.684;2023-02-01T00:42:23;5.60;;;3.83;;
41201;SDS011;26936;50.524;8.684;2023-02-01T00:44:48;7.70;;;4.43;;
41201;SDS011;26936;50.524;8.684;2023-02-01T00:47:14;10.23;;;4.50;;
41201;SDS011;26936;50.524;8.684;2023-02-01T00:49:39;12.07;;;4.93;;
41201;SDS011;26936;50.524;8.684;2023-02-01T00:52:04;8.70;;;4.53;;
41201;SDS011;26936;50.524;8.684;2023-02-01T00:54:29;10.47;;;5.00;;
41201;SDS011;26936;50.524;8.684;2023-02-01T00:56:55;9.77;;;4.72;;
41201;SDS011;26936;50.524;8.684;2023-02-01T00:59:20;11.20;;;5.00;;
41201;SDS011;26936;50.524;8.684;2023-02-01T01:01:45;9.57;;;5.03;;
41201;SDS011;26936;50.524;8.684;2023-02-01T01:04:10;10.43;;;5.30;;
41201;SDS011;26936;50.524;8.684;2023-02-01T01:06:36;11.57;;;5.03;;
41201;SDS011;26936;50.524;8.684;2023-02-01T01:09:03;12.80;;;5.10;;
41201;SDS011;26936;50.524;8.684;2023-02-01T01:11:30;12.90;;;5.47;;
41201;SDS011;26936;50.524;8.684;2023-02-01T01:13:58;9.15;;;4.80;;
41201;SDS011;26936;50.524;8.684;2023-02-01T01:16:24;10.70;;;5.22;;
41201;SDS011;26936;50.524;8.684;2023-02-01T01:18:52;10.88;;;5.55;;
41201;SDS011;26936;50.524;8.684;2023-02-01T01:21:18;10.30;;;5.70;;
41201;SDS011;26936;50.524;8.684;2023-02-01T01:23:44;12.25;;;5.60;;
41201;SDS011;26936;50.524;8.684;2023-02-01T01:26:15;10.52;;;5.15;;
41201;SDS011;26936;50.524;8.684;2023-02-01T01:28:42;13.68;;;5.93;;
41201;SDS011;26936;50.524;8.684;2023-02-01T01:31:08;11.30;;;6.45;;
41201;SDS011;26936;50.524;8.684;2023-02-01T01:33:35;9.63;;;5.38;;
41201;SDS011;26936;50.524;8.684;2023-02-01T01:36:00;11.60;;;6.10;;
41201;SDS011;26936;50.524;8.684;2023-02-01T01:38:25;12.67;;;6.63;;
41201;SDS011;26936;50.524;8.684;2023-02-01T01:40:50;13.82;;;6.03;;
41201;SDS011;26936;50.524;8.684;2023-02-01T01:43:17;11.48;;;6.20;;
41201;SDS011;26936;50.524;8.684;2023-02-01T01:45:46;11.95;;;5.90;;
41201;SDS011;26936;50.524;8.684;2023-02-01T01:48:13;12.90;;;5.88;;
41201;SDS011;26936;50.524;8.684;2023-02-01T01:50:45;11.60;;;6.22;;
41201;SDS011;26936;50.524;8.684;2023-02-01T01:53:16;12.90;;;6.22;;
41201;SDS011;26936;50.524;8.684;2023-02-01T01:55:45;12.10;;;6.03;;
41201;SDS011;26936;50.524;8.684;2023-02-01T01:58:17;10.35;;;6.18;;
41201;SDS011;26936;50.524;8.684;2023-02-01T02:00:46;12.43;;;6.63;;
41201;SDS011;26936;50.524;8.684;2023-02-01T02:03:19;12.25;;;7.00;;
41201;SDS011;26936;50.524;8.684;2023-02-01T02:05:48;10.20;;;6.20;;
41201;SDS011;26936;50.524;8.684;2023-02-01T02:08:15;12.68;;;6.40;;
41201;SDS011;26936;50.524;8.684;2023-02-01T02:10:42;12.38;;;6.07;;
41201;SDS011;26936;50.524;8.684;2023-02-01T02:14:00;10.75;;;5.55;;
41201;SDS011;26936;50.524;8.684;2023-02-01T02:16:33;9.80;;;6.15;;
41201;SDS011;26936;50.524;8.684;2023-02-01T02:36:20;8.93;;;5.47;;
41201;SDS011;26936;50.524;8.684;2023-02-01T02:39:33;10.18;;;4.68;;
41201;SDS011;26936;50.524;8.684;2023-02-01T02:56:59;9.68;;;5.40;;
41201;SDS011;26936;50.524;8.684;2023-02-01T02:59:45;8.38;;;4.80;;
41201;SDS011;26936;50.524;8.684;2023-02-01T03:02:30;12.15;;;4.95;;
41201;SDS011;26936;50.524;8.684;2023-02-01T03:05:16;9.05;;;5.50;;
41201;SDS011;26936;50.524;8.684;2023-02-01T03:13:10;9.55;;;4.45;;
41201;SDS011;26936;50.524;8.684;2023-02-01T03:15:47;10.18;;;3.83;;
41201;SDS011;26936;50.524;8.684;2023-02-01T03:18:36;11.40;;;4.95;;
41201;SDS011;26936;50.524;8.684;2023-02-01T03:21:16;9.70;;;4.47;;
41201;SDS011;26936;50.524;8.684;2023-02-01T03:23:47;10.98;;;4.38;;
41201;SDS011;26936;50.524;8.684;2023-02-01T03:26:16;11.82;;;3.65;;
41201;SDS011;26936;50.524;8.684;2023-02-01T03:28:48;8.88;;;3.95;;
41201;SDS011;26936;50.524;8.684;2023-02-01T03:31:19;11.48;;;3.97;;
41201;SDS011;26936;50.524;8.684;2023-02-01T03:33:45;8.90;;;3.30;;
41201;SDS011;26936;50.524;8.684;2023-02-01T03:38:57;9.63;;;3.22;;
41201;SDS011;26936;50.524;8.684;2023-02-01T03:44:13;12.02;;;3.35;;
41201;SDS011;26936;50.524;8.684;2023-02-01T03:46:45;10.32;;;3.22;;
41201;SDS011;26936;50.524;8.684;2023-02-01T03:49:18;13.07;;;3.40;;
41201;SDS011;26936;50.524;8.684;2023-02-01T03:51:48;13.38;;;2.97;;
41201;SDS011;26936;50.524;8.684;2023-02-01T03:54:16;13.63;;;2.97;;
41201;SDS011;26936;50.524;8.684;2023-02-01T03:56:43;6.80;;;2.80;;
41201;SDS011;26936;50.524;8.684;2023-02-01T03:59:11;12.98;;;4.50;;
41201;SDS011;26936;50.524;8.684;2023-02-01T04:01:37;10.73;;;3.58;;
41201;SDS011;26936;50.524;8.684;2023-02-01T04:04:03;11.70;;;3.22;;
41201;SDS011;26936;50.524;8.684;2023-02-01T04:06:28;9.52;;;3.15;;
41201;SDS011;26936;50.524;8.684;2023-02-01T04:08:54;8.77;;;2.70;;
41201;SDS011;26936;50.524;8.684;2023-02-01T04:11:19;8.90;;;2.63;;
41201;SDS011;26936;50.524;8.684;2023-02-01T04:13:44;13.77;;;4.40;;
41201;SDS011;26936;50.524;8.684;2023-02-01T04:16:10;8.65;;;2.47;;
41201;SDS011;26936;50.524;8.684;2023-02-01T04:18:35;9.55;;;2.70;;
41201;SDS011;26936;50.524;8.684;2023-02-01T04:21:01;13.60;;;2.80;;
41201;SDS011;26936;50.524;8.684;2023-02-01T04:23:27;14.07;;;2.92;;
41201;SDS011;26936;50.524;8.684;2023-02-01T04:25:59;11.10;;;2.72;;
41201;SDS011;26936;50.524;8.684;2023-02-01T04:28:26;14.30;;;2.80;;
41201;SDS011;26936;50.524;8.684;2023-02-01T04:30:51;13.23;;;2.72;;
41201;SDS011;26936;50.524;8.684;2023-02-01T04:33:17;11.95;;;3.15;;
41201;SDS011;26936;50.524;8.684;2023-02-01T04:35:42;11.53;;;4.60;;
41201;SDS011;26936;50.524;8.684;2023-02-01T04:38:07;10.07;;;3.10;;
41201;SDS011;26936;50.524;8.684;2023-02-01T04:40:33;11.27;;;2.97;;
41201;SDS011;26936;50.524;8.684;2023-02-01T04:42:58;10.80;;;2.83;;
41201;SDS011;26936;50.524;8.684;2023-02-01T04:45:25;9.25;;;2.90;;
41201;SDS011;26936;50.524;8.684;2023-02-01T04:47:51;13.95;;;2.75;;
41201;SDS011;26936;50.524;8.684;2023-02-01T04:50:16;8.90;;;2.63;;
41201;SDS011;26936;50.524;8.684;2023-02-01T04:52:41;10.80;;;3.28;;
41201;SDS011;26936;50.524;8.684;2023-02-01T04:55:06;11.57;;;2.55;;
41201;SDS011;26936;50.524;8.684;2023-02-01T04:57:32;12.20;;;2.75;;
41201;SDS011;26936;50.524;8.684;2023-02-01T04:59:57;12.83;;;3.13;;
41201;SDS011;26936;50.524;8.684;2023-02-01T05:02:23;13.85;;;2.88;;
41201;SDS011;26936;50.524;8.684;2023-02-01T05:04:48;8.35;;;2.85;;
41201;SDS011;26936;50.524;8.684;2023-02-01T05:07:13;12.20;;;3.30;;
41201;SDS011;26936;50.524;8.684;2023-02-01T05:09:38;12.57;;;3.17;;
41201;SDS011;26936;50.524;8.684;2023-02-01T05:12:04;8.57;;;2.50;;
41201;SDS011;26936;50.524;8.684;2023-02-01T05:14:48;9.73;;;2.50;;
41201;SDS011;26936;50.524;8.684;2023-02-01T05:17:14;17.33;;;3.60;;
41201;SDS011;26936;50.524;8.684;2023-02-01T05:19:39;12.00;;;2.80;;
41201;SDS011;26936;50.524;8.684;2023-02-01T05:22:04;13.57;;;3.53;;
41201;SDS011;26936;50.524;8.684;2023-02-01T05:24:29;9.57;;;3.13;;
41201;SDS011;26936;50.524;8.684;2023-02-01T05:26:55;12.50;;;3.72;;
41201;SDS011;26936;50.524;8.684;2023-02-01T05:29:20;13.50;;;2.88;;
41201;SDS011;26936;50.524;8.684;2023-02-01T05:31:46;16.45;;;3.15;;
41201;SDS011;26936;50.524;8.684;2023-02-01T05:34:12;21.35;;;3.55;;
41201;SDS011;26936;50.524;8.684;2023-02-01T05:36:37;12.15;;;3.42;;
41201;SDS011;26936;50.524;8.684;2023-02-01T05:39:03;9.77;;;3.90;;
41201;SDS011;26936;50.524;8.684;2023-02-01T05:41:28;17.73;;;3.70;;
41201;SDS011;26936;50.524;8.684;2023-02-01T05:43:54;13.38;;;3.72;;
41201;SDS011;26936;50.524;8.684;2023-02-01T05:46:19;17.75;;;3.72;;
41201;SDS011;26936;50.524;8.684;2023-02-01T05:48:45;15.80;;;3.55;;
41201;SDS011;26936;50.524;8.684;2023-02-01T05:51:10;16.57;;;3.97;;
41201;SDS011;26936;50.524;8.684;2023-02-01T05:53:36;12.80;;;3.50;;
41201;SDS011;26936;50.524;8.684;2023-02-01T05:56:01;15.47;;;3.57;;
41201;SDS011;26936;50.524;8.684;2023-02-01T05:58:26;8.63;;;2.63;;
41201;SDS011;26936;50.524;8.684;2023-02-01T06:00:52;13.13;;;3.40;;
41201;SDS011;26936;50.524;8.684;2023-02-01T06:03:17;10.70;;;2.85;;
41201;SDS011;26936;50.524;8.684;2023-02-01T06:05:45;13.27;;;2.85;;
41201;SDS011;26936;50.524;8.684;2023-02-01T06:08:11;11.32;;;3.13;;
41201;SDS011;26936;50.524;8.684;2023-02-01T06:10:37;11.98;;;3.25;;
41201;SDS011;26936;50.524;8.684;2023-02-01T06:13:02;14.10;;;3.73;;
41201;SDS011;26936;50.524;8.684;2023-02-01T06:15:28;11.00;;;3.17;;
41201;SDS011;26936;50.524;8.684;2023-02-01T06:17:54;12.98;;;3.17;;
41201;SDS011;26936;50.524;8.684;2023-02-01T06:20:19;13.20;;;3.27;;
41201;SDS011;26936;50.524;8.684;2023-02-01T06:22:45;13.57;;;2.92;;
41201;SDS011;26936;50.524;8.684;2023-02-01T06:25:10;13.00;;;3.28;;
41201;SDS011;26936;50.524;8.684;2023-02-01T06:27:35;14.35;;;2.92;;
41201;SDS011;26936;50.524;8.684;2023-02-01T06:30:02;18.52;;;3.40;;
41201;SDS011;26936;50.524;8.684;2023-02-01T06:32:28;12.77;;;3.38;;
41201;SDS011;26936;50.524;8.684;2023-02-01T06:34:53;13.85;;;3.00;;
41201;SDS011;26936;50.524;8.684;2023-02-01T06:37:20;13.20;;;3.40;;
41201;SDS011;26936;50.524;8.684;2023-02-01T06:39:45;12.30;;;3.42;;
41201;SDS011;26936;50.524;8.684;2023-02-01T06:42:10;15.27;;;3.37;;
41201;SDS011;26936;50.524;8.684;2023-02-01T06:44:36;14.60;;;3.60;;
41201;SDS011;26936;50.524;8.684;2023-02-01T06:47:02;14.80;;;3.30;;
41201;SDS011;26936;50.524;8.684;2023-02-01T06:49:28;18.13;;;3.42;;
41201;SDS011;26936;50.524;8.684;2023-02-01T06:51:53;15.17;;;3.17;;
41201;SDS011;26936;50.524;8.684;2023-02-01T06:54:19;11.82;;;2.95;;
41201;SDS011;26936;50.524;8.684;2023-02-01T06:56:44;13.77;;;3.47;;
41201;SDS011;26936;50.524;8.684;2023-02-01T06:59:09;11.27;;;3.07;;
41201;SDS011;26936;50.524;8.684;2023-02-01T07:01:35;15.80;;;3.60;;
41201;SDS011;26936;50.524;8.684;2023-02-01T07:04:00;13.93;;;3.40;;
41201;SDS011;26936;50.524;8.684;2023-02-01T07:06:25;12.93;;;3.15;;
41201;SDS011;26936;50.524;8.684;2023-02-01T07:08:51;14.25;;;3.60;;
41201;SDS011;26936;50.524;8.684;2023-02-01T07:11:17;14.63;;;2.92;;
41201;SDS011;26936;50.524;8.684;2023-02-01T07:13:43;13.65;;;2.38;;
41201;SDS011;26936;50.524;8.684;2023-02-01T07:16:12;13.35;;;3.45;;
41201;SDS011;26936;50.524;8.684;2023-02-01T07:18:39;9.95;;;2.72;;
41201;SDS011;26936;50.524;8.684;2023-02-01T07:21:05;12.90;;;2.85;;
41201;SDS011;26936;50.524;8.684;2023-02-01T07:23:31;15.77;;;3.72;;
41201;SDS011;26936;50.524;8.684;2023-02-01T07:25:57;10.10;;;2.70;;
41201;SDS011;26936;50.524;8.684;2023-02-01T07:28:24;16.67;;;3.22;;
41201;SDS011;26936;50.524;8.684;2023-02-01T07:30:50;11.27;;;3.35;;
41201;SDS011;26936;50.524;8.684;2023-02-01T07:33:22;14.88;;;3.35;;
41201;SDS011;26936;50.524;8.684;2023-02-01T07:35:49;13.73;;;3.33;;
41201;SDS011;26936;50.524;8.684;2023-02-01T07:38:15;9.90;;;3.22;;
41201;SDS011;26936;50.524;8.684;2023-02-01T07:40:41;15.23;;;3.70;;
41201;SDS011;26936;50.524;8.684;2023-02-01T07:43:07;11.05;;;3.00;;
41201;SDS011;26936;50.524;8.684;2023-02-01T07:45:33;13.32;;;3.15;;
41201;SDS011;26936;50.524;8.684;2023-02-01T07:47:59;12.55;;;3.63;;
41201;SDS011;26936;50.524;8.684;2023-02-01T07:50:24;13.00;;;3.17;;
41201;SDS011;26936;50.524;8.684;2023-02-01T07:52:49;12.13;;;3.57;;
41201;SDS011;26936;50.524;8.684;2023-02-01T07:55:15;10.38;;;2.72;;
41201;SDS011;26936;50.524;8.684;2023-02-01T07:57:40;7.70;;;3.20;;
41201;SDS011;26936;50.524;8.684;2023-02-01T08:00:06;12.55;;;2.97;;
41201;SDS011;26936;50.524;8.684;2023-02-01T08:02:51;13.18;;;2.97;;
41201;SDS011;26936;50.524;8.684;2023-02-01T08:05:16;15.55;;;3.90;;
41201;SDS011;26936;50.524;8.684;2023-02-01T08:07:41;14.10;;;3.60;;
41201;SDS011;26936;50.524;8.684;2023-02-01T08:10:07;17.90;;;3.23;;
41201;SDS011;26936;50.524;8.684;2023-02-01T08:12:35;13.48;;;3.17;;
41201;SDS011;26936;50.524;8.684;2023-02-01T08:15:01;16.08;;;3.65;;
41201;SDS011;26936;50.524;8.684;2023-02-01T08:17:26;10.70;;;2.38;;
41201;SDS011;26936;50.524;8.684;2023-02-01T08:19:53;10.65;;;2.90;;
41201;SDS011;26936;50.524;8.684;2023-02-01T08:22:18;14.35;;;2.78;;
41201;SDS011;26936;50.524;8.684;2023-02-01T08:24:44;14.05;;;2.92;;
41201;SDS011;26936;50.524;8.684;2023-02-01T08:27:12;14.10;;;3.13;;
41201;SDS011;26936;50.524;8.684;2023-02-01T08:29:38;9.05;;;2.78;;
41201;SDS011;26936;50.524;8.684;2023-02-01T08:32:03;7.88;;;2.60;;
41201;SDS011;26936;50.524;8.684;2023-02-01T08:34:29;10.77;;;3.20;;
41201;SDS011;26936;50.524;8.684;2023-02-01T08:36:54;13.00;;;3.03;;
41201;SDS011;26936;50.524;8.684;2023-02-01T08:39:23;10.95;;;3.47;;
41201;SDS011;26936;50.524;8.684;2023-02-01T08:41:48;11.68;;;3.20;;
41201;SDS011;26936;50.524;8.684;2023-02-01T08:44:33;16.23;;;3.50;;
41201;SDS011;26936;50.524;8.684;2023-02-01T08:46:58;17.02;;;3.15;;
41201;SDS011;26936;50.524;8.684;2023-02-01T08:49:24;19.42;;;2.90;;
41201;SDS011;26936;50.524;8.684;2023-02-01T08:51:49;12.10;;;2.90;;
41201;SDS011;26936;50.524;8.684;2023-02-01T08:54:14;16.90;;;3.22;;
41201;SDS011;26936;50.524;8.684;2023-02-01T08:56:39;15.33;;;3.03;;
41201;SDS011;26936;50.524;8.684;2023-02-01T08:59:04;12.13;;;2.67;;
41201;SDS011;26936;50.524;8.684;2023-02-01T09:01:30;13.13;;;3.17;;
41201;SDS011;26936;50.524;8.684;2023-02-01T09:03:55;12.50;;;2.53;;
41201;SDS011;26936;50.524;8.684;2023-02-01T09:06:20;17.13;;;3.47;;
41201;SDS011;26936;50.524;8.684;2023-02-01T09:08:45;11.93;;;3.40;;
41201;SDS011;26936;50.524;8.684;2023-02-01T09:11:12;10.73;;;3.28;;
41201;SDS011;26936;50.524;8.684;2023-02-01T09:13:39;11.18;;;2.80;;
41201;SDS011;26936;50.524;8.684;2023-02-01T09:16:04;16.83;;;4.30;;
41201;SDS011;26936;50.524;8.684;2023-02-01T09:18:30;14.15;;;3.20;;
41201;SDS011;26936;50.524;8.684;2023-02-01T09:20:55;14.45;;;2.75;;
41201;SDS011;26936;50.524;8.684;2023-02-01T09:23:20;12.35;;;2.90;;
41201;SDS011;26936;50.524;8.684;2023-02-01T09:25:46;16.38;;;3.15;;
41201;SDS011;26936;50.524;8.684;2023-02-01T09:28:15;19.27;;;3.22;;
41201;SDS011;26936;50.524;8.684;2023-02-01T09:30:40;12.93;;;3.05;;
41201;SDS011;26936;50.524;8.684;2023-02-01T09:33:05;9.53;;;3.20;;
41201;SDS011;26936;50.524;8.684;2023-02-01T09:35:30;13.27;;;4.00;;
41201;SDS011;26936;50.524;8.684;2023-02-01T09:37:56;12.80;;;3.13;;
41201;SDS011;26936;50.524;8.684;2023-02-01T09:40:21;12.87;;;3.03;;
41201;SDS011;26936;50.524;8.684;2023-02-01T09:43:02;14.57;;;3.53;;
41201;SDS011;26936;50.524;8.684;2023-02-01T09:45:41;17.05;;;3.45;;
41201;SDS011;26936;50.524;8.684;2023-02-01T09:48:13;15.27;;;3.03;;
41201;SDS011;26936;50.524;8.684;2023-02-01T09:50:42;14.63;;;2.88;;
41201;SDS011;26936;50.524;8.684;2023-02-01T09:53:25;13.45;;;2.78;;
41201;SDS011;26936;50.524;8.684;2023-02-01T09:55:55;15.88;;;3.10;;
41201;SDS011;26936;50.524;8.684;2023-02-01T09:58:35;15.70;;;3.28;;
41201;SDS011;26936;50.524;8.684;2023-02-01T10:01:10;17.25;;;3.42;;
41201;SDS011;26936;50.524;8.684;2023-02-01T10:03:44;13.10;;;3.13;;
41201;SDS011;26936;50.524;8.684;2023-02-01T10:12:01;13.75;;;3.22;;
41201;SDS011;26936;50.524;8.684;2023-02-01T10:15:02;15.30;;;3.33;;
41201;SDS011;26936;50.524;8.684;2023-02-01T10:23:34;16.83;;;2.83;;
41201;SDS011;26936;50.524;8.684;2023-02-01T10:28:39;12.38;;;3.00;;
41201;SDS011;26936;50.524;8.684;2023-02-01T10:31:06;13.00;;;2.75;;
41201;SDS011;26936;50.524;8.684;2023-02-01T10:33:34;17.50;;;2.78;;
41201;SDS011;26936;50.524;8.684;2023-02-01T10:38:37;14.77;;;2.75;;
41201;SDS011;26936;50.524;8.684;2023-02-01T10:41:04;15.13;;;2.60;;
41201;SDS011;26936;50.524;8.684;2023-02-01T10:43:39;11.30;;;2.95;;
41201;SDS011;26936;50.524;8.684;2023-02-01T10:46:06;7.43;;;2.58;;
41201;SDS011;26936;50.524;8.684;2023-02-01T10:48:32;13.93;;;3.40;;
41201;SDS011;26936;50.524;8.684;2023-02-01T10:51:10;10.35;;;3.10;;
41201;SDS011;26936;50.524;8.684;2023-02-01T10:56:19;14.85;;;2.70;;
41201;SDS011;26936;50.524;8.684;2023-02-01T10:58:47;11.47;;;3.17;;
41201;SDS011;26936;50.524;8.684;2023-02-01T11:01:17;15.65;;;3.03;;
41201;SDS011;26936;50.524;8.684;2023-02-01T11:06:22;15.82;;;2.80;;
41201;SDS011;26936;50.524;8.684;2023-02-01T11:08:53;17.70;;;4.45;;
41201;SDS011;26936;50.524;8.684;2023-02-01T11:11:20;9.90;;;2.88;;
41201;SDS011;26936;50.524;8.684;2023-02-01T11:13:54;13.32;;;2.60;;
41201;SDS011;26936;50.524;8.684;2023-02-01T11:16:33;12.00;;;2.45;;
41201;SDS011;26936;50.524;8.684;2023-02-01T11:19:00;11.05;;;2.42;;
41201;SDS011;26936;50.524;8.684;2023-02-01T11:21:26;13.55;;;2.60;;
41201;SDS011;26936;50.524;8.684;2023-02-01T11:23:52;9.10;;;2.42;;
41201;SDS011;26936;50.524;8.684;2023-02-01T11:26:21;11.43;;;2.50;;
41201;SDS011;26936;50.524;8.684;2023-02-01T11:31:34;10.35;;;2.47;;
41201;SDS011;26936;50.524;8.684;2023-02-01T11:34:04;11.63;;;2.83;;
41201;SDS011;26936;50.524;8.684;2023-02-01T11:36:39;13.60;;;2.63;;
41201;SDS011;26936;50.524;8.684;2023-02-01T11:41:43;11.85;;;2.40;;
41201;SDS011;26936;50.524;8.684;2023-02-01T11:49:53;14.30;;;3.17;;
41201;SDS011;26936;50.524;8.684;2023-02-01T11:58:18;11.07;;;2.70;;
41201;SDS011;26936;50.524;8.684;2023-02-01T12:01:09;14.23;;;2.67;;
41201;SDS011;26936;50.524;8.684;2023-02-01T12:03:52;10.43;;;2.40;;
41201;SDS011;26936;50.524;8.684;2023-02-01T12:12:28;8.68;;;1.90;;
41201;SDS011;26936;50.524;8.684;2023-02-01T12:15:08;8.90;;;2.15;;
41201;SDS011;26936;50.524;8.684;2023-02-01T12:31:07;13.82;;;4.28;;
41201;SDS011;26936;50.524;8.684;2023-02-01T12:39:22;9.80;;;2.25;;
41201;SDS011;26936;50.524;8.684;2023-02-01T12:41:56;7.78;;;2.33;;
41201;SDS011;26936;50.524;8.684;2023-02-01T12:47:43;9.45;;;2.10;;
41201;SDS011;26936;50.524;8.684;2023-02-01T12:50:18;13.80;;;2.75;;
41201;SDS011;26936;50.524;8.684;2023-02-01T12:52:51;8.60;;;2.17;;
41201;SDS011;26936;50.524;8.684;2023-02-01T12:55:20;9.40;;;1.65;;
41201;SDS011;26936;50.524;8.684;2023-02-01T12:58:08;9.63;;;2.60;;
41201;SDS011;26936;50.524;8.684;2023-02-01T13:00:40;9.40;;;2.10;;
41201;SDS011;26936;50.524;8.684;2023-02-01T13:03:12;14.75;;;2.22;;
41201;SDS011;26936;50.524;8.684;2023-02-01T13:06:10;8.75;;;1.95;;
41201;SDS011;26936;50.524;8.684;2023-02-01T13:08:51;8.73;;;1.65;;
41201;SDS011;26936;50.524;8.684;2023-02-01T13:11:31;10.82;;;2.03;;
41201;SDS011;26936;50.524;8.684;2023-02-01T13:14:20;8.05;;;2.10;;
41201;SDS011;26936;50.524;8.684;2023-02-01T13:17:03;9.93;;;2.30;;
41201;SDS011;26936;50.524;8.684;2023-02-01T13:19:38;8.23;;;1.80;;
41201;SDS011;26936;50.524;8.684;2023-02-01T13:22:07;8.82;;;2.22;;
41201;SDS011;26936;50.524;8.684;2023-02-01T13:27:02;8.73;;;2.27;;
41201;SDS011;26936;50.524;8.684;2023-02-01T13:29:28;7.38;;;1.88;;
41201;SDS011;26936;50.524;8.684;2023-02-01T13:37:46;9.65;;;2.22;;
41201;SDS011;26936;50.524;8.684;2023-02-01T13:40:39;9.43;;;1.83;;
41201;SDS011;26936;50.524;8.684;2023-02-01T13:43:14;6.00;;;1.83;;
41201;SDS011;26936;50.524;8.684;2023-02-01T13:45:48;8.70;;;1.88;;
41201;SDS011;26936;50.524;8.684;2023-02-01T13:48:27;8.55;;;2.53;;
41201;SDS011;26936;50.524;8.684;2023-02-01T13:50:58;9.85;;;2.10;;
41201;SDS011;26936;50.524;8.684;2023-02-01T13:53:29;13.40;;;3.15;;
41201;SDS011;26936;50.524;8.684;2023-02-01T13:56:00;12.55;;;2.50;;
41201;SDS011;26936;50.524;8.684;2023-02-01T13:58:35;7.70;;;1.67;;
41201;SDS011;26936;50.524;8.684;2023-02-01T14:03:56;9.35;;;2.25;;
41201;SDS011;26936;50.524;8.684;2023-02-01T14:16:40;8.20;;;1.90;;
41201;SDS011;26936;50.524;8.684;2023-02-01T14:19:22;11.82;;;2.25;;
41201;SDS011;26936;50.524;8.684;2023-02-01T14:21:53;14.77;;;2.30;;
41201;SDS011;26936;50.524;8.684;2023-02-01T14:26:58;6.55;;;2.03;;
41201;SDS011;26936;50.524;8.684;2023-02-01T14:29:35;7.72;;;1.95;;
41201;SDS011;26936;50.524;8.684;2023-02-01T14:32:19;9.60;;;2.05;;
41201;SDS011;26936;50.524;8.684;2023-02-01T14:44:52;8.70;;;2.35;;
41201;SDS011;26936;50.524;8.684;2023-02-01T14:49:54;13.80;;;2.47;;
41201;SDS011;26936;50.524;8.684;2023-02-01T14:52:22;9.77;;;1.95;;
41201;SDS011;26936;50.524;8.684;2023-02-01T14:54:55;7.47;;;2.28;;
41201;SDS011;26936;50.524;8.684;2023-02-01T14:57:25;12.45;;;2.30;;
41201;SDS011;26936;50.524;8.684;2023-02-01T14:59:53;6.13;;;1.67;;
41201;SDS011;26936;50.524;8.684;2023-02-01T15:02:25;10.60;;;2.40;;
41201;SDS011;26936;50.524;8.684;2023-02-01T15:04:55;9.73;;;2.20;;
41201;SDS011;26936;50.524;8.684;2023-02-01T15:07:22;10.43;;;2.20;;
41201;SDS011;26936;50.524;8.684;2023-02-01T15:09:50;8.18;;;2.13;;
41201;SDS011;26936;50.524;8.684;2023-02-01T15:12:19;12.35;;;2.58;;
41201;SDS011;26936;50.524;8.684;2023-02-01T15:17:54;11.47;;;2.40;;
41201;SDS011;26936;50.524;8.684;2023-02-01T15:20:23;7.63;;;2.15;;
41201;SDS011;26936;50.524;8.684;2023-02-01T15:22:57;9.73;;;2.35;;
41201;SDS011;26936;50.524;8.684;2023-02-01T15:25:34;9.93;;;2.35;;
41201;SDS011;26936;50.524;8.684;2023-02-01T15:28:03;8.20;;;2.70;;
41201;SDS011;26936;50.524;8.684;2023-02-01T15:30:31;6.78;;;1.95;;
41201;SDS011;26936;50.524;8.684;2023-02-01T15:33:13;8.50;;;2.38;;
41201;SDS011;26936;50.524;8.684;2023-02-01T15:35:42;9.15;;;2.88;;
41201;SDS011;26936;50.524;8.684;2023-02-01T15:43:26;16.00;;;4.63;;
41201;SDS011;26936;50.524;8.684;2023-02-01T15:45:57;14.13;;;5.22;;
41201;SDS011;26936;50.524;8.684;2023-02-01T15:48:28;10.75;;;3.90;;
41201;SDS011;26936;50.524;8.684;2023-02-01T15:51:01;13.75;;;2.10;;
41201;SDS011;26936;50.524;8.684;2023-02-01T15:53:26;9.70;;;2.60;;
41201;SDS011;26936;50.524;8.684;2023-02-01T15:55:56;7.95;;;1.88;;
41201;SDS011;26936;50.524;8.684;2023-02-01T15:58:25;7.97;;;2.30;;
41201;SDS011;26936;50.524;8.684;2023-02-01T16:00:53;9.73;;;2.50;;
41201;SDS011;26936;50.524;8.684;2023-02-01T16:03:32;14.30;;;2.63;;
41201;SDS011;26936;50.524;8.684;2023-02-01T16:06:04;10.50;;;2.83;;
41201;SDS011;26936;50.524;8.684;2023-02-01T16:08:38;10.40;;;2.60;;
41201;SDS011;26936;50.524;8.684;2023-02-01T16:11:28;12.68;;;2.38;;
41201;SDS011;26936;50.524;8.684;2023-02-01T16:13:57;13.05;;;3.25;;
41201;SDS011;26936;50.524;8.684;2023-02-01T16:16:26;9.05;;;3.53;;
41201;SDS011;26936;50.524;8.684;2023-02-01T16:18:53;13.30;;;2.65;;
41201;SDS011;26936;50.524;8.684;2023-02-01T16:21:18;16.30;;;2.85;;
41201;SDS011;26936;50.524;8.684;2023-02-01T16:23:43;11.02;;;3.05;;
41201;SDS011;26936;50.524;8.684;2023-02-01T16:26:12;10.88;;;2.15;;
41201;SDS011;26936;50.524;8.684;2023-02-01T16:28:38;8.63;;;2.85;;
41201;SDS011;26936;50.524;8.684;2023-02-01T16:31:03;10.65;;;2.72;;
41201;SDS011;26936;50.524;8.684;2023-02-01T16:33:29;9.07;;;3.00;;
41201;SDS011;26936;50.524;8.684;2023-02-01T16:35:55;12.20;;;3.13;;
41201;SDS011;26936;50.524;8.684;2023-02-01T16:38:24;10.32;;;3.08;;
41201;SDS011;26936;50.524;8.684;2023-02-01T16:40:51;12.27;;;3.22;;
41201;SDS011;26936;50.524;8.684;2023-02-01T16:43:19;12.57;;;3.33;;
41201;SDS011;26936;50.524;8.684;2023-02-01T16:45:49;11.10;;;2.83;;
41201;SDS011;26936;50.524;8.684;2023-02-01T16:48:26;9.80;;;3.03;;
41201;SDS011;26936;50.524;8.684;2023-02-01T16:50:54;10.85;;;2.83;;
41201;SDS011;26936;50.524;8.684;2023-02-01T16:53:22;13.55;;;3.67;;
41201;SDS011;26936;50.524;8.684;2023-02-01T16:55:49;14.98;;;2.80;;
41201;SDS011;26936;50.524;8.684;2023-02-01T16:58:17;13.13;;;3.28;;
41201;SDS011;26936;50.524;8.684;2023-02-01T17:00:44;15.02;;;3.13;;
41201;SDS011;26936;50.524;8.684;2023-02-01T17:03:11;15.85;;;3.08;;
41201;SDS011;26936;50.524;8.684;2023-02-01T17:05:41;9.40;;;2.53;;
41201;SDS011;26936;50.524;8.684;2023-02-01T17:08:09;10.25;;;2.92;;
41201;SDS011;26936;50.524;8.684;2023-02-01T17:10:37;8.30;;;2.50;;
41201;SDS011;26936;50.524;8.684;2023-02-01T17:13:02;11.83;;;3.30;;
41201;SDS011;26936;50.524;8.684;2023-02-01T17:15:28;13.65;;;3.42;;
41201;SDS011;26936;50.524;8.684;2023-02-01T17:17:59;10.57;;;2.53;;
41201;SDS011;26936;50.524;8.684;2023-02-01T17:20:28;10.30;;;3.38;;
41201;SDS011;26936;50.524;8.684;2023-02-01T17:22:56;10.60;;;2.70;;
41201;SDS011;26936;50.524;8.684;2023-02-01T17:25:22;9.68;;;2.10;;